Time;durP1;ratioP1;P1;durP2;ratioP2;P2;SDS_P1;SDS_P2;PMS_P1;PMS_P2;Temp;Humidity;BMP_temperature;BMP_pressure;BME280_temperature;BME280_humidity;BME280_pressure;Samples;Min_cycle;Max_cycle;Signal;HPM_P1;HPM_P2
2023/12/19 00:02:13;;;;;;;59.87;32.40;;;;;;;;;;5035426;28;20477;-80
2023/12/19 00:04:39;;;;;;;64.83;32.97;;;;;;;;;;5035885;28;20497;-80
2023/12/19 00:07:08;;;;;;;68.27;33.87;;;;;;;;;;5035627;28;20495;-79
2023/12/19 00:09:34;;;;;;;58.03;33.03;;;;;;;;;;5035836;28;20433;-80
2023/12/19 00:12:01;;;;;;;61.70;32.57;;;;;;;;;;5035146;28;20855;-80
2023/12/19 00:14:27;;;;;;;68.27;33.37;;;;;;;;;;5034534;28;20463;-80
2023/12/19 00:16:53;;;;;;;64.87;30.30;;;;;;;;;;5034946;28;20855;-80
2023/12/19 00:19:21;;;;;;;64.53;33.20;;;;;;;;;;5035786;28;20439;-80
2023/12/19 00:21:48;;;;;;;58.03;31.40;;;;;;;;;;5035233;28;20483;-80
2023/12/19 00:24:15;;;;;;;59.43;31.03;;;;;;;;;;5034260;28;20464;-80
2023/12/19 00:26:41;;;;;;;55.53;29.73;;;;;;;;;;5033880;28;20843;-80
2023/12/19 00:29:08;;;;;;;62.67;31.60;;;;;;;;;;5034340;28;20451;-80
2023/12/19 00:31:34;;;;;;;61.23;31.70;;;;;;;;;;5035171;28;20479;-80
2023/12/19 00:34:00;;;;;;;55.20;30.07;;;;;;;;;;5035184;28;20459;-80
2023/12/19 00:36:28;;;;;;;55.37;31.67;;;;;;;;;;5034746;28;20479;-79
2023/12/19 00:38:55;;;;;;;55.03;30.00;;;;;;;;;;5035123;28;20472;-80
2023/12/19 00:41:21;;;;;;;55.97;32.43;;;;;;;;;;5034745;28;20477;-80
2023/12/19 00:43:48;;;;;;;60.20;30.37;;;;;;;;;;5033666;28;20445;-80
2023/12/19 00:46:14;;;;;;;52.67;29.43;;;;;;;;;;5034729;28;20882;-79
2023/12/19 00:48:41;;;;;;;54.17;30.50;;;;;;;;;;5033799;28;20511;-80
2023/12/19 00:51:11;;;;;;;54.07;29.13;;;;;;;;;;5034669;28;20476;-80
2023/12/19 00:53:41;;;;;;;51.67;30.33;;;;;;;;;;5035409;28;20437;-80
2023/12/19 00:56:08;;;;;;;61.03;30.13;;;;;;;;;;5034358;28;20480;-80
2023/12/19 00:58:35;;;;;;;65.47;29.80;;;;;;;;;;5035076;28;20429;-80
2023/12/19 01:01:02;;;;;;;53.17;28.30;;;;;;;;;;5034510;28;20482;-80
2023/12/19 01:03:28;;;;;;;57.70;30.10;;;;;;;;;;5035317;28;20440;-80
2023/12/19 01:05:55;;;;;;;50.30;30.33;;;;;;;;;;5034055;28;20473;-80
2023/12/19 01:08:21;;;;;;;48.50;27.10;;;;;;;;;;5034326;28;20487;-80
2023/12/19 01:10:49;;;;;;;51.93;25.13;;;;;;;;;;5034391;28;20874;-80
2023/12/19 01:13:16;;;;;;;53.40;27.20;;;;;;;;;;5034664;28;20524;-80
2023/12/19 01:15:42;;;;;;;49.53;25.23;;;;;;;;;;5034129;28;20464;-80
2023/12/19 01:18:08;;;;;;;54.47;27.23;;;;;;;;;;5034862;28;20531;-80
2023/12/19 01:20:35;;;;;;;54.23;27.13;;;;;;;;;;5034265;28;20441;-80
2023/12/19 01:23:01;;;;;;;45.07;25.13;;;;;;;;;;5034729;28;20433;-82
2023/12/19 01:25:28;;;;;;;43.33;26.40;;;;;;;;;;5033425;28;20485;-80
2023/12/19 01:27:56;;;;;;;42.87;22.53;;;;;;;;;;5034032;28;20436;-80
2023/12/19 01:30:23;;;;;;;43.93;25.20;;;;;;;;;;5034175;28;20437;-78
2023/12/19 01:32:49;;;;;;;41.80;23.60;;;;;;;;;;5034604;28;20440;-79
2023/12/19 01:35:16;;;;;;;41.47;23.10;;;;;;;;;;5034170;28;20492;-79
2023/12/19 01:37:43;;;;;;;39.83;21.70;;;;;;;;;;5034239;28;20479;-82
2023/12/19 01:40:10;;;;;;;41.00;23.57;;;;;;;;;;5032789;28;20449;-81
2023/12/19 01:42:36;;;;;;;42.27;23.00;;;;;;;;;;5032927;28;20481;-81
2023/12/19 01:45:10;;;;;;;42.87;23.57;;;;;;;;;;5033630;28;20848;-81
2023/12/19 01:47:39;;;;;;;43.77;22.80;;;;;;;;;;5034118;28;20468;-79
2023/12/19 01:50:07;;;;;;;43.07;23.17;;;;;;;;;;5034447;28;20523;-80
2023/12/19 01:52:34;;;;;;;40.43;23.07;;;;;;;;;;5033444;28;20465;-80
2023/12/19 01:55:01;;;;;;;36.97;21.30;;;;;;;;;;5034277;28;20559;-80
2023/12/19 01:57:30;;;;;;;36.83;23.07;;;;;;;;;;5033379;28;20495;-80
2023/12/19 01:59:57;;;;;;;43.40;23.87;;;;;;;;;;5033535;28;20523;-80
2023/12/19 02:02:25;;;;;;;40.60;23.20;;;;;;;;;;5031846;28;20491;-80
2023/12/19 02:04:51;;;;;;;37.23;20.60;;;;;;;;;;5033811;28;20996;-79
2023/12/19 02:07:17;;;;;;;43.07;23.87;;;;;;;;;;5033521;28;20468;-80
2023/12/19 02:09:44;;;;;;;37.60;24.10;;;;;;;;;;5034210;28;20428;-80
2023/12/19 02:12:12;;;;;;;35.30;21.07;;;;;;;;;;5034240;28;20898;-82
2023/12/19 02:14:39;;;;;;;41.50;21.90;;;;;;;;;;5034737;28;20469;-81
2023/12/19 02:17:05;;;;;;;38.40;21.07;;;;;;;;;;5033173;28;20476;-81
2023/12/19 02:19:33;;;;;;;42.80;22.00;;;;;;;;;;5034548;28;20836;-80
2023/12/19 02:22:00;;;;;;;34.70;20.87;;;;;;;;;;5034124;28;20862;-82
2023/12/19 02:24:28;;;;;;;32.87;21.20;;;;;;;;;;5033689;28;20491;-81
2023/12/19 02:26:54;;;;;;;39.00;24.77;;;;;;;;;;5032903;28;20476;-81
2023/12/19 02:29:21;;;;;;;40.73;24.07;;;;;;;;;;5033754;28;20455;-80
2023/12/19 02:31:49;;;;;;;38.30;22.30;;;;;;;;;;5033258;28;20499;-80
2023/12/19 02:34:15;;;;;;;35.80;21.43;;;;;;;;;;5034077;28;20523;-80
2023/12/19 02:36:42;;;;;;;37.77;21.83;;;;;;;;;;5033329;28;20464;-80
2023/12/19 02:39:10;;;;;;;38.10;21.70;;;;;;;;;;5033970;28;20445;-81
2023/12/19 02:41:38;;;;;;;42.10;21.40;;;;;;;;;;5033110;28;20484;-81
2023/12/19 02:44:04;;;;;;;32.10;19.73;;;;;;;;;;5033722;28;20491;-79
2023/12/19 02:46:32;;;;;;;33.93;20.47;;;;;;;;;;5033313;28;20541;-81
2023/12/19 02:48:58;;;;;;;34.30;20.80;;;;;;;;;;5037625;28;20441;-79
2023/12/19 02:51:26;;;;;;;34.37;20.43;;;;;;;;;;5036901;28;20547;-80
2023/12/19 02:53:53;;;;;;;37.00;21.83;;;;;;;;;;5037328;28;20935;-82
2023/12/19 02:56:19;;;;;;;38.00;21.47;;;;;;;;;;5035777;28;20472;-79
2023/12/19 02:58:47;;;;;;;35.90;19.83;;;;;;;;;;5037087;28;20810;-80
2023/12/19 03:01:13;;;;;;;39.43;20.93;;;;;;;;;;5036736;28;21051;-80
2023/12/19 03:03:40;;;;;;;35.23;21.17;;;;;;;;;;5037285;28;20519;-80
2023/12/19 03:06:06;;;;;;;37.77;20.77;;;;;;;;;;5036852;28;20498;-81
2023/12/19 03:08:33;;;;;;;38.47;22.40;;;;;;;;;;5036992;28;20447;-82
2023/12/19 03:11:00;;;;;;;36.40;20.33;;;;;;;;;;5035532;28;20527;-80
2023/12/19 03:13:27;;;;;;;37.27;21.03;;;;;;;;;;5036988;28;20439;-81
2023/12/19 03:15:55;;;;;;;36.10;23.40;;;;;;;;;;5036574;28;20564;-81
2023/12/19 03:18:24;;;;;;;36.77;22.43;;;;;;;;;;5037023;28;20443;-81
2023/12/19 03:20:52;;;;;;;39.90;22.50;;;;;;;;;;5036859;28;20468;-81
2023/12/19 03:23:19;;;;;;;40.47;22.80;;;;;;;;;;5037232;28;20868;-80
2023/12/19 03:25:46;;;;;;;34.70;20.97;;;;;;;;;;5036464;28;20499;-80
2023/12/19 03:28:12;;;;;;;39.90;23.63;;;;;;;;;;5037040;28;20451;-80
2023/12/19 03:30:39;;;;;;;38.30;22.57;;;;;;;;;;5036645;28;20540;-80
2023/12/19 03:33:07;;;;;;;34.20;21.37;;;;;;;;;;5035430;28;20447;-80
2023/12/19 03:35:33;;;;;;;41.83;22.50;;;;;;;;;;5036225;28;20464;-80
2023/12/19 03:38:00;;;;;;;37.30;22.20;;;;;;;;;;5037515;28;20437;-80
2023/12/19 03:40:26;;;;;;;39.37;21.90;;;;;;;;;;5036041;28;20447;-79
2023/12/19 03:42:53;;;;;;;38.93;21.77;;;;;;;;;;5036976;28;20487;-81
2023/12/19 03:45:20;;;;;;;32.23;22.10;;;;;;;;;;5036138;28;20496;-81
2023/12/19 03:47:46;;;;;;;45.23;22.80;;;;;;;;;;5036080;28;20958;-81
2023/12/19 03:50:14;;;;;;;37.20;22.07;;;;;;;;;;5036882;28;20861;-79
2023/12/19 03:52:41;;;;;;;34.27;21.43;;;;;;;;;;5035908;28;20544;-81
2023/12/19 03:55:09;;;;;;;31.40;20.57;;;;;;;;;;5036996;28;20460;-79
2023/12/19 03:57:38;;;;;;;31.97;18.00;;;;;;;;;;5035900;28;20480;-80
2023/12/19 04:00:06;;;;;;;31.17;19.60;;;;;;;;;;5036577;28;20440;-79
2023/12/19 04:02:33;;;;;;;30.20;18.80;;;;;;;;;;5035404;28;20480;-81
2023/12/19 04:04:59;;;;;;;30.83;17.47;;;;;;;;;;5036677;28;20468;-82
2023/12/19 04:07:29;;;;;;;24.70;17.20;;;;;;;;;;5036003;28;20473;-80
2023/12/19 04:09:55;;;;;;;26.53;16.67;;;;;;;;;;5036418;28;20441;-80
2023/12/19 04:12:22;;;;;;;28.10;16.83;;;;;;;;;;5036333;28;20468;-80
2023/12/19 04:14:49;;;;;;;27.50;14.83;;;;;;;;;;5035032;28;20461;-79
2023/12/19 04:17:16;;;;;;;23.67;15.97;;;;;;;;;;5035457;28;21012;-80
2023/12/19 04:19:42;;;;;;;20.47;12.57;;;;;;;;;;5035534;28;20436;-80
2023/12/19 04:22:09;;;;;;;24.77;14.27;;;;;;;;;;5035064;28;20477;-81
2023/12/19 04:24:36;;;;;;;23.60;15.33;;;;;;;;;;5035639;28;20457;-82
2023/12/19 04:27:03;;;;;;;21.10;13.37;;;;;;;;;;5035144;28;20552;-80
2023/12/19 04:29:29;;;;;;;21.87;13.43;;;;;;;;;;5035619;28;20821;-80
2023/12/19 04:31:57;;;;;;;19.43;12.60;;;;;;;;;;5035358;28;20473;-80
2023/12/19 04:34:24;;;;;;;20.03;12.73;;;;;;;;;;5035790;28;20827;-81
2023/12/19 04:36:50;;;;;;;19.40;12.83;;;;;;;;;;5035412;28;20646;-80
2023/12/19 04:39:16;;;;;;;18.93;12.67;;;;;;;;;;5036215;28;20440;-80
2023/12/19 04:41:44;;;;;;;16.20;11.57;;;;;;;;;;5035010;28;20477;-82
2023/12/19 04:44:11;;;;;;;17.33;12.47;;;;;;;;;;5035832;28;20467;-81
2023/12/19 04:46:38;;;;;;;14.97;11.30;;;;;;;;;;5035219;28;20468;-80
2023/12/19 04:49:06;;;;;;;16.77;11.00;;;;;;;;;;5035481;28;20491;-82
2023/12/19 04:51:32;;;;;;;16.20;11.13;;;;;;;;;;5034819;28;20556;-80
2023/12/19 04:53:59;;;;;;;14.73;9.93;;;;;;;;;;5035571;28;20441;-80
2023/12/19 04:56:26;;;;;;;12.70;10.37;;;;;;;;;;5033543;28;20878;-82
2023/12/19 04:58:54;;;;;;;12.90;9.50;;;;;;;;;;5035188;28;20432;-82
2023/12/19 05:01:20;;;;;;;14.20;9.77;;;;;;;;;;5034793;28;20473;-82
2023/12/19 05:03:47;;;;;;;12.83;10.20;;;;;;;;;;5034470;28;20575;-80
2023/12/19 05:06:16;;;;;;;14.60;10.00;;;;;;;;;;5034395;28;20483;-82
2023/12/19 05:08:43;;;;;;;14.10;10.03;;;;;;;;;;5035509;28;20487;-81
2023/12/19 05:11:09;;;;;;;14.60;10.23;;;;;;;;;;5033950;28;20468;-80
2023/12/19 05:13:36;;;;;;;14.97;10.33;;;;;;;;;;5034765;28;20437;-79
2023/12/19 05:16:11;;;;;;;12.20;9.77;;;;;;;;;;5033974;28;20483;-79
2023/12/19 05:18:37;;;;;;;13.27;10.40;;;;;;;;;;5034862;28;20532;-81
2023/12/19 05:21:04;;;;;;;12.23;9.33;;;;;;;;;;5034240;28;20904;-82
2023/12/19 05:23:30;;;;;;;11.07;8.83;;;;;;;;;;5034041;28;20504;-82
2023/12/19 05:25:57;;;;;;;11.17;9.13;;;;;;;;;;5034158;28;20479;-81
2023/12/19 05:28:26;;;;;;;10.20;9.07;;;;;;;;;;5033467;28;20487;-81
2023/12/19 05:30:56;;;;;;;9.93;8.10;;;;;;;;;;5033864;28;20468;-80
2023/12/19 05:33:23;;;;;;;10.33;8.40;;;;;;;;;;5034048;28;20503;-80
2023/12/19 05:35:51;;;;;;;10.53;8.20;;;;;;;;;;5032833;28;20541;-82
2023/12/19 05:38:18;;;;;;;11.80;9.20;;;;;;;;;;5034200;28;20452;-80
2023/12/19 05:40:45;;;;;;;11.20;9.00;;;;;;;;;;5033818;28;20464;-80
2023/12/19 05:43:11;;;;;;;13.53;9.63;;;;;;;;;;5034274;28;20859;-79
2023/12/19 05:45:39;;;;;;;12.57;9.10;;;;;;;;;;5034194;28;20467;-80
2023/12/19 05:48:05;;;;;;;16.83;8.67;;;;;;;;;;5035857;28;20443;-79
2023/12/19 05:50:33;;;;;;;10.27;7.90;;;;;;;;;;5034114;28;20440;-81
2023/12/19 05:53:00;;;;;;;9.10;7.17;;;;;;;;;;5035046;28;20441;-80
2023/12/19 05:55:27;;;;;;;10.00;8.33;;;;;;;;;;5033381;28;21069;-80
2023/12/19 05:57:54;;;;;;;17.40;8.60;;;;;;;;;;5032388;28;20448;-81
2023/12/19 06:00:21;;;;;;;12.83;8.40;;;;;;;;;;5033697;28;20467;-80
2023/12/19 06:02:50;;;;;;;10.63;7.37;;;;;;;;;;5033981;28;20480;-80
2023/12/19 06:05:17;;;;;;;9.20;6.63;;;;;;;;;;5034252;28;20464;-80
2023/12/19 06:07:45;;;;;;;11.40;6.93;;;;;;;;;;5034049;28;20815;-81
2023/12/19 06:10:14;;;;;;;11.40;7.73;;;;;;;;;;5034129;28;20816;-81
2023/12/19 06:12:41;;;;;;;7.87;6.27;;;;;;;;;;5033743;28;20488;-80
2023/12/19 06:15:11;;;;;;;7.33;6.23;;;;;;;;;;5034300;28;20457;-80
2023/12/19 06:17:40;;;;;;;8.57;5.33;;;;;;;;;;5033826;28;20994;-81
2023/12/19 06:20:07;;;;;;;8.77;6.10;;;;;;;;;;5033516;28;20443;-80
2023/12/19 06:22:34;;;;;;;7.50;6.40;;;;;;;;;;5037088;28;20473;-80
2023/12/19 06:25:01;;;;;;;7.90;5.70;;;;;;;;;;5038844;28;20547;-81
2023/12/19 06:27:28;;;;;;;5.80;4.93;;;;;;;;;;5039113;28;20469;-81
2023/12/19 06:29:55;;;;;;;5.57;5.03;;;;;;;;;;5038571;28;20441;-81
2023/12/19 06:32:21;;;;;;;6.00;5.00;;;;;;;;;;5037583;28;20551;-81
2023/12/19 06:34:48;;;;;;;5.43;4.40;;;;;;;;;;5038408;28;20457;-80
2023/12/19 06:37:14;;;;;;;6.80;5.30;;;;;;;;;;5038413;28;20552;-79
2023/12/19 06:39:41;;;;;;;6.03;4.60;;;;;;;;;;5039410;28;20437;-80
2023/12/19 06:42:09;;;;;;;4.90;4.23;;;;;;;;;;5038352;28;20990;-80
2023/12/19 06:44:35;;;;;;;5.50;4.37;;;;;;;;;;5038717;28;20465;-79
2023/12/19 06:47:01;;;;;;;6.83;5.60;;;;;;;;;;5038367;28;20561;-79
2023/12/19 06:49:28;;;;;;;4.20;3.80;;;;;;;;;;5038721;28;20527;-79
2023/12/19 06:51:58;;;;;;;4.97;3.90;;;;;;;;;;5039053;28;20508;-80
2023/12/19 06:54:24;;;;;;;5.53;4.13;;;;;;;;;;5038943;28;20507;-79
2023/12/19 06:56:51;;;;;;;4.77;4.10;;;;;;;;;;5039376;28;20563;-80
2023/12/19 06:59:19;;;;;;;5.73;4.03;;;;;;;;;;5039457;28;20502;-79
2023/12/19 07:01:45;;;;;;;5.70;3.97;;;;;;;;;;5037963;28;20491;-79
2023/12/19 07:04:12;;;;;;;4.97;4.40;;;;;;;;;;5038456;28;20484;-81
2023/12/19 07:06:40;;;;;;;4.00;3.70;;;;;;;;;;5039082;28;20551;-79
2023/12/19 07:09:06;;;;;;;4.73;4.10;;;;;;;;;;5038995;28;20480;-81
2023/12/19 07:11:33;;;;;;;4.63;3.73;;;;;;;;;;5037862;28;20473;-79
2023/12/19 07:14:01;;;;;;;4.33;3.43;;;;;;;;;;5039007;28;21202;-80
2023/12/19 07:16:29;;;;;;;4.10;3.10;;;;;;;;;;5038016;28;20483;-81
2023/12/19 07:18:55;;;;;;;3.20;3.00;;;;;;;;;;5038965;28;20812;-79
2023/12/19 07:21:22;;;;;;;4.23;3.80;;;;;;;;;;5037706;28;20542;-79
2023/12/19 07:23:50;;;;;;;6.20;4.07;;;;;;;;;;5038108;28;20559;-79
2023/12/19 07:26:21;;;;;;;4.50;3.67;;;;;;;;;;5037024;28;20475;-82
2023/12/19 07:28:47;;;;;;;3.87;3.47;;;;;;;;;;5038407;28;20444;-81
2023/12/19 07:31:19;;;;;;;4.50;4.00;;;;;;;;;;5038222;28;20883;-79
2023/12/19 07:33:47;;;;;;;4.03;3.30;;;;;;;;;;5038049;28;20516;-79
2023/12/19 07:36:13;;;;;;;3.40;3.10;;;;;;;;;;5036663;28;20473;-81
2023/12/19 07:38:42;;;;;;;3.83;3.23;;;;;;;;;;5037542;28;20463;-80
2023/12/19 07:41:08;;;;;;;3.40;3.10;;;;;;;;;;5037819;28;20518;-81
2023/12/19 07:43:35;;;;;;;3.37;3.07;;;;;;;;;;5037836;28;21003;-79
2023/12/19 07:46:02;;;;;;;3.83;3.33;;;;;;;;;;5037264;28;20522;-79
2023/12/19 07:48:29;;;;;;;3.70;3.37;;;;;;;;;;5037525;28;20961;-80
2023/12/19 07:50:58;;;;;;;4.30;3.90;;;;;;;;;;5036413;28;20471;-80
2023/12/19 07:53:27;;;;;;;5.03;4.40;;;;;;;;;;5037463;28;20935;-81
2023/12/19 07:55:54;;;;;;;4.17;3.77;;;;;;;;;;5035615;28;20473;-79
2023/12/19 07:58:20;;;;;;;5.17;4.43;;;;;;;;;;5037502;28;20441;-79
2023/12/19 08:00:48;;;;;;;4.77;4.37;;;;;;;;;;5036534;28;20477;-79
2023/12/19 08:03:18;;;;;;;4.80;4.20;;;;;;;;;;5037340;28;20484;-82
2023/12/19 08:05:47;;;;;;;4.70;3.93;;;;;;;;;;5037644;28;20492;-80
2023/12/19 08:08:15;;;;;;;4.77;4.37;;;;;;;;;;5036022;28;20449;-81
2023/12/19 08:10:43;;;;;;;4.63;4.23;;;;;;;;;;5036726;28;20467;-81
2023/12/19 08:13:09;;;;;;;6.47;5.10;;;;;;;;;;5037750;28;20437;-79
2023/12/19 08:15:36;;;;;;;4.70;4.30;;;;;;;;;;5037125;28;20536;-79
2023/12/19 08:18:02;;;;;;;5.03;4.53;;;;;;;;;;5035945;28;20445;-80
2023/12/19 08:20:29;;;;;;;5.00;4.60;;;;;;;;;;5035556;28;20437;-82
2023/12/19 08:22:57;;;;;;;4.93;4.50;;;;;;;;;;5037094;28;20506;-81
2023/12/19 08:25:25;;;;;;;5.43;4.93;;;;;;;;;;5036250;28;20460;-79
2023/12/19 08:27:51;;;;;;;6.30;5.70;;;;;;;;;;5037143;28;20443;-80
2023/12/19 08:30:18;;;;;;;4.60;4.20;;;;;;;;;;5036448;28;20443;-78
2023/12/19 08:32:44;;;;;;;5.60;5.13;;;;;;;;;;5037596;28;20448;-79
2023/12/19 08:35:11;;;;;;;4.93;4.43;;;;;;;;;;5037205;28;20555;-80
2023/12/19 08:37:37;;;;;;;4.87;4.43;;;;;;;;;;5036121;28;21003;-80
2023/12/19 08:40:04;;;;;;;5.33;4.83;;;;;;;;;;5036328;28;20949;-81
2023/12/19 08:42:32;;;;;;;5.50;5.10;;;;;;;;;;5035678;28;20476;-81
2023/12/19 08:44:58;;;;;;;6.30;5.03;;;;;;;;;;5035410;28;20485;-79
2023/12/19 08:47:25;;;;;;;5.43;4.93;;;;;;;;;;5035991;28;20469;-80
2023/12/19 08:49:52;;;;;;;4.73;4.33;;;;;;;;;;5036948;28;20532;-80
2023/12/19 08:52:19;;;;;;;5.70;4.83;;;;;;;;;;5035510;28;20840;-79
2023/12/19 08:54:45;;;;;;;6.00;5.20;;;;;;;;;;5035349;28;20467;-80
2023/12/19 08:57:12;;;;;;;5.93;5.13;;;;;;;;;;5035880;28;20544;-80
2023/12/19 08:59:40;;;;;;;5.27;4.80;;;;;;;;;;5036633;28;20452;-80
2023/12/19 09:02:07;;;;;;;5.17;4.77;;;;;;;;;;5036491;28;20471;-79
2023/12/19 09:04:33;;;;;;;5.30;4.50;;;;;;;;;;5036137;28;20846;-80
2023/12/19 09:07:01;;;;;;;4.57;4.17;;;;;;;;;;5035515;28;20460;-79
2023/12/19 09:09:28;;;;;;;5.90;5.40;;;;;;;;;;5036559;28;20540;-80
2023/12/19 09:11:55;;;;;;;5.53;4.97;;;;;;;;;;5036821;28;20478;-80
2023/12/19 09:14:22;;;;;;;5.10;4.30;;;;;;;;;;5037154;28;20461;-80
2023/12/19 09:16:50;;;;;;;5.70;4.80;;;;;;;;;;5035967;28;20468;-81
2023/12/19 09:19:17;;;;;;;5.30;4.80;;;;;;;;;;5037277;28;20448;-80
2023/12/19 09:21:43;;;;;;;4.63;4.20;;;;;;;;;;5036259;28;21072;-80
2023/12/19 09:24:10;;;;;;;9.20;5.20;;;;;;;;;;5036527;28;20490;-80
2023/12/19 09:26:40;;;;;;;5.97;4.53;;;;;;;;;;5036755;28;20465;-80
2023/12/19 09:29:07;;;;;;;6.33;5.53;;;;;;;;;;5036694;28;20429;-79
2023/12/19 09:31:34;;;;;;;4.83;4.27;;;;;;;;;;5036330;28;20480;-80
2023/12/19 09:34:03;;;;;;;6.33;4.83;;;;;;;;;;5036300;28;20517;-80
2023/12/19 09:36:29;;;;;;;4.83;4.17;;;;;;;;;;5035646;28;20464;-80
2023/12/19 09:38:56;;;;;;;6.00;5.17;;;;;;;;;;5036146;28;20447;-80
2023/12/19 09:41:22;;;;;;;6.07;5.03;;;;;;;;;;5036003;28;20526;-79
2023/12/19 09:43:50;;;;;;;5.00;4.50;;;;;;;;;;5035173;28;20540;-80
2023/12/19 09:46:16;;;;;;;5.47;4.97;;;;;;;;;;5036610;28;20468;-80
2023/12/19 09:48:43;;;;;;;6.40;4.87;;;;;;;;;;5036079;28;20445;-80
2023/12/19 09:51:16;;;;;;;6.30;5.70;;;;;;;;;;5037004;28;21096;-79
2023/12/19 09:53:42;;;;;;;4.90;4.13;;;;;;;;;;5036496;28;20413;-79
2023/12/19 09:56:09;;;;;;;7.30;5.77;;;;;;;;;;5036415;28;20461;-79
2023/12/19 09:58:36;;;;;;;5.90;5.30;;;;;;;;;;5035923;28;20429;-79
2023/12/19 10:01:03;;;;;;;6.30;5.67;;;;;;;;;;5034595;28;20472;-80
2023/12/19 10:03:29;;;;;;;6.67;5.90;;;;;;;;;;5036571;28;20487;-81
2023/12/19 10:05:57;;;;;;;7.00;5.90;;;;;;;;;;5035934;28;20497;-81
2023/12/19 10:08:25;;;;;;;7.07;5.67;;;;;;;;;;5036252;28;20445;-80
2023/12/19 10:10:53;;;;;;;6.37;5.37;;;;;;;;;;5036022;28;20896;-80
2023/12/19 10:13:26;;;;;;;6.03;5.40;;;;;;;;;;5034831;28;20445;-80
2023/12/19 10:16:00;;;;;;;6.00;5.43;;;;;;;;;;5035599;28;20476;-81
2023/12/19 10:18:26;;;;;;;6.07;5.47;;;;;;;;;;5036249;28;20432;-81
2023/12/19 10:21:02;;;;;;;6.67;5.50;;;;;;;;;;5036695;28;20492;-81
2023/12/19 10:23:30;;;;;;;5.47;4.97;;;;;;;;;;5036944;28;20495;-81
2023/12/19 10:25:57;;;;;;;6.53;4.77;;;;;;;;;;5036286;28;20502;-80
2023/12/19 10:28:23;;;;;;;4.77;4.30;;;;;;;;;;5036586;28;20445;-80
2023/12/19 10:30:49;;;;;;;6.23;5.40;;;;;;;;;;5035840;28;20488;-81
2023/12/19 10:33:16;;;;;;;6.13;5.10;;;;;;;;;;5037198;28;20500;-79
2023/12/19 10:35:44;;;;;;;6.37;5.73;;;;;;;;;;5035945;28;20547;-78
2023/12/19 10:38:11;;;;;;;6.00;5.50;;;;;;;;;;5036300;28;20441;-79
2023/12/19 10:40:40;;;;;;;6.40;5.77;;;;;;;;;;5036341;28;20523;-79
2023/12/19 10:43:06;;;;;;;6.13;4.90;;;;;;;;;;5036546;28;20453;-79
2023/12/19 10:45:33;;;;;;;6.03;5.40;;;;;;;;;;5035780;28;20489;-79
2023/12/19 10:48:00;;;;;;;8.73;5.90;;;;;;;;;;5036531;28;20441;-80
2023/12/19 10:50:28;;;;;;;5.53;4.90;;;;;;;;;;5036157;28;20539;-80
2023/12/19 10:52:57;;;;;;;6.30;5.70;;;;;;;;;;5036576;28;20876;-80
2023/12/19 10:55:28;;;;;;;6.67;5.50;;;;;;;;;;5036345;28;20547;-80
2023/12/19 10:57:58;;;;;;;6.77;5.23;;;;;;;;;;5036012;28;20449;-80
2023/12/19 11:00:25;;;;;;;5.60;5.03;;;;;;;;;;5036485;28;20529;-79
2023/12/19 11:02:56;;;;;;;5.60;5.10;;;;;;;;;;5036762;28;21000;-80
2023/12/19 11:05:27;;;;;;;6.03;5.43;;;;;;;;;;5036399;28;20489;-80
2023/12/19 11:07:58;;;;;;;6.13;5.10;;;;;;;;;;5037564;28;20504;-80
2023/12/19 11:10:25;;;;;;;5.60;5.10;;;;;;;;;;5039546;28;20915;-79
2023/12/19 11:12:52;;;;;;;6.53;5.50;;;;;;;;;;5040145;28;20437;-79
2023/12/19 11:15:20;;;;;;;5.87;5.37;;;;;;;;;;5039315;28;20547;-79
2023/12/19 11:17:51;;;;;;;5.77;5.00;;;;;;;;;;5040058;28;20527;-80
2023/12/19 11:20:23;;;;;;;6.97;5.90;;;;;;;;;;5039120;28;20884;-79
2023/12/19 11:22:54;;;;;;;6.63;5.80;;;;;;;;;;5039093;28;20476;-80
2023/12/19 11:25:26;;;;;;;6.03;5.43;;;;;;;;;;5038331;28;20863;-79
2023/12/19 11:27:54;;;;;;;6.00;5.40;;;;;;;;;;5039514;28;20421;-80
2023/12/19 11:30:36;;;;;;;6.13;5.17;;;;;;;;;;5039270;28;20451;-80
2023/12/19 11:33:03;;;;;;;6.20;5.60;;;;;;;;;;5040066;28;20464;-80
2023/12/19 11:35:30;;;;;;;6.60;5.30;;;;;;;;;;5039437;28;20465;-80
2023/12/19 11:38:17;;;;;;;7.57;5.80;;;;;;;;;;5040082;28;20452;-80
2023/12/19 11:40:48;;;;;;;7.10;5.93;;;;;;;;;;5038331;28;20514;-80
2023/12/19 11:43:29;;;;;;;7.47;6.07;;;;;;;;;;5039045;28;20444;-80
2023/12/19 11:45:58;;;;;;;6.33;5.23;;;;;;;;;;5038732;28;20464;-80
2023/12/19 11:48:35;;;;;;;8.43;5.70;;;;;;;;;;5037932;28;20448;-80
2023/12/19 11:51:01;;;;;;;7.60;5.40;;;;;;;;;;5038885;28;20475;-80
2023/12/19 11:53:28;;;;;;;8.37;5.63;;;;;;;;;;5039742;28;20437;-80
2023/12/19 11:56:02;;;;;;;8.73;5.27;;;;;;;;;;5038745;28;21002;-80
2023/12/19 11:58:29;;;;;;;7.50;5.80;;;;;;;;;;5039722;28;20885;-80
2023/12/19 12:01:00;;;;;;;8.07;5.73;;;;;;;;;;5037887;28;20469;-80
2023/12/19 12:03:26;;;;;;;10.50;7.47;;;;;;;;;;5039694;28;20505;-80
2023/12/19 12:05:54;;;;;;;9.30;6.90;;;;;;;;;;5039339;28;20481;-80
2023/12/19 12:08:21;;;;;;;9.73;6.30;;;;;;;;;;5038498;28;20476;-81
2023/12/19 12:10:59;;;;;;;9.33;6.40;;;;;;;;;;5037730;28;20990;-81
2023/12/19 12:13:27;;;;;;;11.70;7.37;;;;;;;;;;5039781;28;20413;-81
2023/12/19 12:15:54;;;;;;;10.37;6.60;;;;;;;;;;5036867;28;20491;-80
2023/12/19 12:18:22;;;;;;;13.23;7.53;;;;;;;;;;5037575;28;20471;-82
2023/12/19 12:20:49;;;;;;;7.73;6.73;;;;;;;;;;5037533;28;20469;-81
2023/12/19 12:23:20;;;;;;;8.40;7.33;;;;;;;;;;5038386;28;20966;-80
2023/12/19 12:25:56;;;;;;;7.83;5.57;;;;;;;;;;5039431;28;20814;-80
2023/12/19 12:28:26;;;;;;;9.30;7.07;;;;;;;;;;5038343;28;20428;-81
2023/12/19 12:30:55;;;;;;;10.37;7.77;;;;;;;;;;5037580;28;20476;-81
2023/12/19 12:33:25;;;;;;;9.93;8.10;;;;;;;;;;5037628;28;20882;-79
2023/12/19 12:35:52;;;;;;;6.10;5.50;;;;;;;;;;5038871;28;20480;-81
2023/12/19 12:38:19;;;;;;;6.97;6.27;;;;;;;;;;5038168;28;20449;-80
2023/12/19 12:40:55;;;;;;;6.77;5.90;;;;;;;;;;5039553;28;20890;-79
2023/12/19 12:43:34;;;;;;;7.93;5.97;;;;;;;;;;5039880;28;20432;-79
2023/12/19 12:46:08;;;;;;;8.93;6.50;;;;;;;;;;5039027;28;20469;-79
2023/12/19 12:48:36;;;;;;;9.40;6.70;;;;;;;;;;5041178;28;20421;-80
2023/12/19 12:51:04;;;;;;;7.90;6.37;;;;;;;;;;5039132;28;20527;-80
2023/12/19 12:53:31;;;;;;;11.73;8.10;;;;;;;;;;5037333;28;20471;-80
2023/12/19 12:56:05;;;;;;;9.23;6.40;;;;;;;;;;5038859;28;20555;-79
2023/12/19 12:58:32;;;;;;;9.60;6.60;;;;;;;;;;5037469;28;20935;-80
2023/12/19 13:00:58;;;;;;;7.67;6.53;;;;;;;;;;5037886;28;20492;-80
2023/12/19 13:03:25;;;;;;;9.33;6.87;;;;;;;;;;5037204;28;20441;-79
2023/12/19 13:05:53;;;;;;;8.43;6.27;;;;;;;;;;5036512;28;21010;-79
2023/12/19 13:08:20;;;;;;;7.87;6.20;;;;;;;;;;5038711;28;20441;-79
2023/12/19 13:10:46;;;;;;;12.03;5.90;;;;;;;;;;5038262;28;20971;-81
2023/12/19 13:13:13;;;;;;;11.03;8.63;;;;;;;;;;5038673;28;20532;-82
2023/12/19 13:15:40;;;;;;;12.17;7.53;;;;;;;;;;5037658;28;20548;-81
2023/12/19 13:18:08;;;;;;;8.83;6.60;;;;;;;;;;5037470;28;20852;-79
2023/12/19 13:20:37;;;;;;;10.27;8.13;;;;;;;;;;5037955;28;20902;-79
2023/12/19 13:23:06;;;;;;;10.03;7.70;;;;;;;;;;5038372;28;20931;-80
2023/12/19 13:25:33;;;;;;;10.40;7.40;;;;;;;;;;5038858;28;20542;-79
2023/12/19 13:28:01;;;;;;;9.53;8.27;;;;;;;;;;5038527;28;20529;-79
2023/12/19 13:30:29;;;;;;;9.40;7.50;;;;;;;;;;5037170;28;20797;-81
2023/12/19 13:32:56;;;;;;;9.40;6.93;;;;;;;;;;5038524;28;20437;-79
2023/12/19 13:35:23;;;;;;;10.77;7.47;;;;;;;;;;5036901;28;20865;-79
2023/12/19 13:37:49;;;;;;;10.50;8.30;;;;;;;;;;5038227;28;20527;-79
2023/12/19 13:40:17;;;;;;;10.23;7.50;;;;;;;;;;5038002;28;20448;-79
2023/12/19 13:42:44;;;;;;;9.27;7.53;;;;;;;;;;5037409;28;21042;-79
2023/12/19 13:45:11;;;;;;;12.37;8.77;;;;;;;;;;5036745;28;20568;-80
2023/12/19 13:47:37;;;;;;;11.13;8.00;;;;;;;;;;5036615;28;20472;-80
2023/12/19 13:50:04;;;;;;;10.60;8.27;;;;;;;;;;5037629;28;20445;-79
2023/12/19 13:52:31;;;;;;;10.67;7.07;;;;;;;;;;5037022;28;20475;-79
2023/12/19 13:54:57;;;;;;;9.07;7.07;;;;;;;;;;5035907;28;20460;-81
2023/12/19 13:57:25;;;;;;;10.67;7.30;;;;;;;;;;5036573;28;20887;-79
2023/12/19 13:59:52;;;;;;;9.70;8.27;;;;;;;;;;5037579;28;20506;-80
2023/12/19 14:02:19;;;;;;;13.23;9.87;;;;;;;;;;5035251;28;20469;-80
2023/12/19 14:04:47;;;;;;;10.37;7.57;;;;;;;;;;5037751;28;20575;-80
2023/12/19 14:07:16;;;;;;;10.07;7.83;;;;;;;;;;5036691;28;20492;-79
2023/12/19 14:09:44;;;;;;;9.67;7.57;;;;;;;;;;5036770;28;20531;-79
2023/12/19 14:12:10;;;;;;;8.50;6.90;;;;;;;;;;5036467;28;20472;-80
2023/12/19 14:14:38;;;;;;;7.70;6.77;;;;;;;;;;5036723;28;20529;-80
2023/12/19 14:17:06;;;;;;;9.30;8.30;;;;;;;;;;5035205;28;20461;-79
2023/12/19 14:19:35;;;;;;;8.13;6.73;;;;;;;;;;5035474;28;20962;-80
2023/12/19 14:22:01;;;;;;;12.73;9.13;;;;;;;;;;5037834;28;21052;-80
2023/12/19 14:24:28;;;;;;;11.43;8.77;;;;;;;;;;5036661;28;20551;-81
2023/12/19 14:26:55;;;;;;;13.27;9.57;;;;;;;;;;5035475;28;20468;-81
2023/12/19 14:29:22;;;;;;;10.13;8.23;;;;;;;;;;5036183;28;20443;-81
2023/12/19 14:31:50;;;;;;;10.10;8.10;;;;;;;;;;5035747;28;20469;-79
2023/12/19 14:34:16;;;;;;;9.60;7.60;;;;;;;;;;5037675;28;20476;-79